Time;durP1;ratioP1;P1;durP2;ratioP2;P2;SDS_P1;SDS_P2;PMS_P1;PMS_P2;Temp;Humidity;BMP_temperature;BMP_pressure;BME280_temperature;BME280_humidity;BME280_pressure;Samples;Min_cycle;Max_cycle;Signal;HPM_P1;HPM_P2
2023/04/29 00:01:36;;;;;;;0.37;0.27;;;;;;;12.15;100.00;95138.72;4355975;32;20270;-60
2023/04/29 00:04:01;;;;;;;0.00;0.00;;;;;;;12.17;100.00;95133.88;4336346;32;20253;-61
2023/04/29 00:06:29;;;;;;;0.20;0.20;;;;;;;12.22;100.00;95137.19;4327291;32;20193;-58
2023/04/29 00:08:57;;;;;;;0.20;0.20;;;;;;;12.29;100.00;95142.81;4352340;32;20202;-58
2023/04/29 00:11:24;;;;;;;0.00;0.00;;;;;;;12.27;100.00;95129.03;4357507;32;20185;-58
2023/04/29 00:13:51;;;;;;;0.20;0.20;;;;;;;12.31;100.00;95130.00;4342108;32;20189;-59
2023/04/29 00:16:17;;;;;;;0.10;0.10;;;;;;;12.27;100.00;95138.91;4352831;32;20242;-59
2023/04/29 00:18:44;;;;;;;0.13;0.13;;;;;;;12.25;100.00;95136.56;4348249;32;20251;-59
2023/04/29 00:21:09;;;;;;;0.30;0.30;;;;;;;12.19;100.00;95137.78;4359483;32;20254;-59
2023/04/29 00:23:39;;;;;;;0.13;0.13;;;;;;;12.20;100.00;95128.72;4315542;32;20194;-59
2023/04/29 00:26:06;;;;;;;0.00;0.00;;;;;;;12.14;100.00;95129.94;4318153;32;20238;-58
2023/04/29 00:28:33;;;;;;;0.00;0.00;;;;;;;12.15;100.00;95126.19;4340992;32;20193;-59
2023/04/29 00:31:00;;;;;;;0.10;0.10;;;;;;;12.00;100.00;95126.62;4367767;32;20200;-58
2023/04/29 00:33:27;;;;;;;0.00;0.00;;;;;;;12.13;100.00;95127.59;4372399;32;20284;-59
2023/04/29 00:35:54;;;;;;;0.20;0.20;;;;;;;12.15;100.00;95120.88;4363211;32;20200;-59
2023/04/29 00:38:20;;;;;;;0.10;0.10;;;;;;;12.18;100.00;95122.94;4389811;32;20239;-58
2023/04/29 00:40:46;;;;;;;0.30;0.30;;;;;;;12.25;100.00;95128.59;4346739;32;20202;-58
2023/04/29 00:43:12;;;;;;;10.80;0.33;;;;;;;12.21;100.00;95127.62;4359630;32;20207;-58
2023/04/29 00:45:38;;;;;;;0.40;0.40;;;;;;;12.17;100.00;95124.03;4349910;32;20247;-59
2023/04/29 00:48:05;;;;;;;0.00;0.00;;;;;;;12.14;100.00;95132.59;4359751;32;20246;-61
2023/04/29 00:50:38;;;;;;;0.20;0.20;;;;;;;12.16;100.00;95122.44;4338549;32;20248;-58
2023/04/29 00:53:05;;;;;;;0.60;0.60;;;;;;;12.15;100.00;95128.88;4345783;32;20185;-59
2023/04/29 00:55:37;;;;;;;0.10;0.10;;;;;;;12.28;100.00;95119.97;4367567;32;20188;-58
2023/04/29 00:58:10;;;;;;;0.20;0.20;;;;;;;12.42;100.00;95119.09;4368546;32;20207;-58
2023/04/29 01:00:38;;;;;;;0.20;0.20;;;;;;;12.31;100.00;95116.69;4367356;32;20234;-59
2023/04/29 01:03:08;;;;;;;0.30;0.30;;;;;;;12.30;100.00;95115.13;4358152;32;20208;-59
2023/04/29 01:05:33;;;;;;;0.20;0.20;;;;;;;12.29;100.00;95116.22;4383134;32;20259;-58
2023/04/29 01:08:36;;;;;;;0.10;0.10;;;;;;;12.38;100.00;95114.38;4375140;32;20211;-58
2023/04/29 01:11:11;;;;;;;0.20;0.20;;;;;;;12.32;100.00;95115.63;4342486;32;20193;-58
2023/04/29 01:13:59;;;;;;;0.17;0.17;;;;;;;12.34;100.00;95116.09;4346110;32;20234;-58
2023/04/29 01:16:49;;;;;;;0.00;0.00;;;;;;;12.28;100.00;95114.66;4373161;32;20210;-59
2023/04/29 01:19:50;;;;;;;0.10;0.10;;;;;;;12.32;100.00;95114.81;4358729;32;20200;-59
2023/04/29 01:22:17;;;;;;;0.10;0.10;;;;;;;12.32;100.00;95107.63;4364646;32;20193;-58
2023/04/29 01:24:43;;;;;;;0.00;0.00;;;;;;;12.38;100.00;95113.59;4382035;32;20286;-58
2023/04/29 01:27:32;;;;;;;0.27;0.20;;;;;;;12.37;100.00;95107.50;4385333;32;20195;-59
2023/04/29 01:30:00;;;;;;;0.50;0.47;;;;;;;12.26;100.00;95110.75;4349750;32;20184;-59
2023/04/29 01:32:52;;;;;;;0.30;0.30;;;;;;;12.34;100.00;95108.09;4378054;32;20185;-59
2023/04/29 01:35:55;;;;;;;0.07;0.07;;;;;;;12.25;100.00;95117.19;4378640;32;20193;-58
2023/04/29 01:38:56;;;;;;;0.07;0.07;;;;;;;12.20;100.00;95117.31;4367704;32;20211;-59
2023/04/29 01:41:35;;;;;;;0.20;0.20;;;;;;;12.15;100.00;95110.25;4370893;32;20272;-58
2023/04/29 01:44:03;;;;;;;0.13;0.13;;;;;;;12.23;100.00;95114.81;4363046;32;20188;-57
2023/04/29 01:46:29;;;;;;;0.20;0.20;;;;;;;12.33;100.00;95111.84;4386992;32;20204;-59
2023/04/29 01:48:54;;;;;;;0.00;0.00;;;;;;;12.23;100.00;95119.34;4386455;32;20206;-58
2023/04/29 01:51:21;;;;;;;0.10;0.10;;;;;;;12.31;100.00;95114.03;4372882;32;20193;-58
2023/04/29 01:53:48;;;;;;;0.53;0.40;;;;;;;12.16;100.00;95117.13;4383361;32;20237;-58
2023/04/29 01:56:14;;;;;;;0.53;0.40;;;;;;;12.24;100.00;95115.59;4384888;32;20279;-58
2023/04/29 01:58:42;;;;;;;0.30;0.30;;;;;;;12.29;100.00;95112.78;4348422;32;20191;-58
2023/04/29 02:01:10;;;;;;;0.30;0.30;;;;;;;12.29;100.00;95105.59;4350359;32;20220;-58
2023/04/29 02:03:36;;;;;;;0.20;0.20;;;;;;;12.38;100.00;95110.94;4368803;32;20189;-58
2023/04/29 02:06:01;;;;;;;0.20;0.20;;;;;;;12.29;100.00;95100.25;4381164;32;20193;-62
2023/04/29 02:08:28;;;;;;;0.27;0.27;;;;;;;12.14;100.00;95106.03;4385194;32;20180;-58
2023/04/29 02:10:58;;;;;;;0.10;0.10;;;;;;;12.24;100.00;95107.63;4383001;32;20280;-58
2023/04/29 02:13:24;;;;;;;0.07;0.07;;;;;;;12.27;100.00;95104.31;4383803;32;20218;-57
2023/04/29 02:15:49;;;;;;;0.47;0.47;;;;;;;12.30;100.00;95107.16;4361516;32;20256;-58
2023/04/29 02:18:15;;;;;;;0.13;0.13;;;;;;;12.29;100.00;95110.13;4365542;32;20264;-58
2023/04/29 02:20:41;;;;;;;0.10;0.10;;;;;;;12.32;100.00;95104.97;4373335;32;20275;-58
2023/04/29 02:23:07;;;;;;;0.00;0.00;;;;;;;12.43;100.00;95113.47;4387373;32;20189;-58
2023/04/29 02:25:32;;;;;;;0.10;0.10;;;;;;;12.20;100.00;95112.78;4384201;32;20196;-58
2023/04/29 02:27:57;;;;;;;0.20;0.20;;;;;;;12.29;100.00;95108.25;4386692;32;20221;-58
2023/04/29 02:30:23;;;;;;;0.13;0.13;;;;;;;12.27;100.00;95106.97;4386069;32;20216;-58
2023/04/29 02:32:48;;;;;;;0.00;0.00;;;;;;;12.35;100.00;95109.69;4378334;32;20196;-59
2023/04/29 02:35:13;;;;;;;0.20;0.20;;;;;;;12.40;100.00;95106.09;4368891;32;20279;-58
2023/04/29 02:37:40;;;;;;;0.10;0.10;;;;;;;12.28;100.00;95104.03;4386141;32;20239;-58
2023/04/29 02:40:07;;;;;;;0.63;0.37;;;;;;;12.28;100.00;95109.34;4384571;32;20197;-58
2023/04/29 02:42:32;;;;;;;0.13;0.13;;;;;;;12.31;100.00;95103.41;4391624;32;20185;-58
2023/04/29 02:44:57;;;;;;;0.20;0.20;;;;;;;12.28;100.00;95106.69;4386183;32;20199;-57
2023/04/29 02:47:24;;;;;;;0.13;0.13;;;;;;;12.33;100.00;95111.06;4333072;32;20224;-58
2023/04/29 02:49:50;;;;;;;0.03;0.03;;;;;;;12.31;100.00;95105.28;4358966;32;20209;-58
2023/04/29 02:52:17;;;;;;;0.47;0.47;;;;;;;12.33;100.00;95111.06;4366713;32;20197;-58
2023/04/29 02:54:44;;;;;;;0.10;0.10;;;;;;;12.24;100.00;95103.09;4371136;32;20180;-58
2023/04/29 02:57:11;;;;;;;2.00;0.30;;;;;;;12.19;100.00;95116.53;4373035;32;20208;-58
2023/04/29 02:59:37;;;;;;;0.30;0.30;;;;;;;12.25;100.00;95112.62;4367925;32;20188;-58
2023/04/29 03:02:03;;;;;;;0.20;0.20;;;;;;;12.37;100.00;95117.34;4376417;32;20203;-58
2023/04/29 03:04:28;;;;;;;0.10;0.10;;;;;;;12.36;100.00;95119.22;4374487;32;20176;-58
2023/04/29 03:06:55;;;;;;;0.83;0.43;;;;;;;12.13;100.00;95123.06;4384969;32;20199;-58
2023/04/29 03:09:21;;;;;;;0.00;0.00;;;;;;;12.24;100.00;95120.91;4379489;32;20192;-58
2023/04/29 03:11:47;;;;;;;0.20;0.20;;;;;;;12.29;100.00;95120.75;4372303;32;20257;-58
2023/04/29 03:14:13;;;;;;;0.40;0.33;;;;;;;12.27;100.00;95126.38;4373155;32;20203;-58
2023/04/29 03:16:39;;;;;;;0.10;0.10;;;;;;;12.31;100.00;95121.25;4385963;32;20217;-58
2023/04/29 03:19:04;;;;;;;0.10;0.10;;;;;;;12.26;100.00;95124.06;4376819;32;20192;-58
2023/04/29 03:21:30;;;;;;;0.17;0.17;;;;;;;12.32;100.00;95126.25;4378113;32;20214;-58
2023/04/29 03:23:56;;;;;;;0.10;0.10;;;;;;;12.45;100.00;95121.13;4389376;32;20184;-58
2023/04/29 03:26:24;;;;;;;0.07;0.07;;;;;;;12.43;100.00;95112.69;4388262;32;20389;-58
2023/04/29 03:28:51;;;;;;;0.10;0.10;;;;;;;12.32;100.00;95114.81;4371722;32;20260;-58
2023/04/29 03:31:22;;;;;;;0.00;0.00;;;;;;;12.36;100.00;95123.75;4386640;32;20223;-58
2023/04/29 03:33:49;;;;;;;0.10;0.10;;;;;;;12.34;100.00;95118.75;4370535;32;20200;-58
2023/04/29 03:36:16;;;;;;;1.67;0.40;;;;;;;12.32;100.00;95114.81;4372342;32;20192;-58
2023/04/29 03:38:41;;;;;;;0.27;0.27;;;;;;;12.34;100.00;95118.75;4369387;32;20239;-58
2023/04/29 03:41:07;;;;;;;0.30;0.30;;;;;;;12.34;100.00;95120.63;4388638;32;20184;-58
2023/04/29 03:43:33;;;;;;;0.20;0.20;;;;;;;12.27;100.00;95125.59;4386610;32;20193;-58
2023/04/29 03:45:58;;;;;;;0.40;0.40;;;;;;;12.41;100.00;95114.87;4374685;32;20188;-58
2023/04/29 03:48:23;;;;;;;0.00;0.00;;;;;;;12.46;100.00;95117.38;4369525;32;20192;-58
2023/04/29 03:50:54;;;;;;;0.33;0.33;;;;;;;12.50;100.00;95115.66;4372891;32;20228;-58
2023/04/29 03:53:22;;;;;;;0.10;0.10;;;;;;;12.33;100.00;95117.19;4384988;32;20236;-58
2023/04/29 03:55:47;;;;;;;0.17;0.17;;;;;;;12.36;100.00;95116.56;4389013;32;20188;-58
2023/04/29 03:58:14;;;;;;;0.30;0.30;;;;;;;12.32;100.00;95120.94;4366617;32;20196;-58
2023/04/29 04:00:39;;;;;;;0.20;0.20;;;;;;;12.51;100.00;95117.22;4370059;32;20189;-59
2023/04/29 04:03:05;;;;;;;0.10;0.10;;;;;;;12.50;100.00;95121.75;4372396;32;20184;-59
2023/04/29 04:05:32;;;;;;;0.20;0.20;;;;;;;12.36;100.00;95121.88;4390236;32;20195;-59
2023/04/29 04:07:59;;;;;;;0.07;0.07;;;;;;;12.48;100.00;95123.16;4377483;32;20199;-58
2023/04/29 04:10:27;;;;;;;0.40;0.40;;;;;;;12.50;100.00;95124.41;4378681;32;20272;-58
2023/04/29 04:12:52;;;;;;;0.20;0.20;;;;;;;12.48;100.00;95123.16;4367272;32;20334;-58
2023/04/29 04:15:19;;;;;;;0.33;0.33;;;;;;;12.32;100.00;95130.78;4378142;32;20192;-59
2023/04/29 04:17:45;;;;;;;0.10;0.10;;;;;;;12.37;100.00;95130.66;4388520;32;20297;-58
2023/04/29 04:20:12;;;;;;;0.20;0.20;;;;;;;12.38;100.00;95133.00;4387389;32;20227;-58
2023/04/29 04:22:37;;;;;;;0.10;0.10;;;;;;;12.42;100.00;95132.41;4389272;32;20200;-58
2023/04/29 04:25:05;;;;;;;0.10;0.10;;;;;;;12.35;100.00;95130.19;4371606;32;20270;-59
2023/04/29 04:27:30;;;;;;;0.10;0.10;;;;;;;12.46;100.00;95134.12;4390557;32;20192;-59
2023/04/29 04:29:55;;;;;;;1.07;0.50;;;;;;;12.42;100.00;95132.41;4387325;32;20188;-59
2023/04/29 04:32:22;;;;;;;0.10;0.10;;;;;;;12.42;100.00;95143.03;4387654;32;20242;-58
2023/04/29 04:34:49;;;;;;;0.20;0.20;;;;;;;12.37;100.00;95138.63;4369182;32;20242;-59
2023/04/29 04:37:15;;;;;;;0.47;0.47;;;;;;;12.33;100.00;95140.34;4383922;32;20211;-58
2023/04/29 04:39:40;;;;;;;0.50;0.50;;;;;;;12.41;100.00;95144.13;4348856;32;20201;-58
2023/04/29 04:42:07;;;;;;;0.27;0.27;;;;;;;12.45;100.00;95145.09;4387670;32;20248;-58
2023/04/29 04:44:33;;;;;;;0.40;0.40;;;;;;;12.51;100.00;95141.94;4376214;32;20184;-59
2023/04/29 04:47:04;;;;;;;0.70;0.70;;;;;;;12.53;100.00;95138.97;4383943;32;20225;-58
2023/04/29 04:49:30;;;;;;;1.10;0.50;;;;;;;12.60;100.00;95147.31;4381470;32;20240;-59
2023/04/29 04:51:56;;;;;;;0.17;0.10;;;;;;;12.59;100.00;95145.75;4388283;32;20223;-58
2023/04/29 04:54:23;;;;;;;0.10;0.10;;;;;;;12.62;100.00;95145.91;4379973;32;20340;-59
2023/04/29 04:56:50;;;;;;;1.03;0.77;;;;;;;12.64;100.00;95149.03;4377603;32;20204;-58
2023/04/29 04:59:16;;;;;;;0.40;0.40;;;;;;;12.63;100.00;95152.00;4381707;32;20240;-58
2023/04/29 05:01:42;;;;;;;0.10;0.10;;;;;;;12.54;100.00;95153.84;4370192;32;20191;-59
2023/04/29 05:04:07;;;;;;;0.43;0.43;;;;;;;12.65;100.00;95149.81;4344560;32;20244;-58
2023/04/29 05:06:33;;;;;;;0.10;0.10;;;;;;;12.61;100.00;95154.19;4364432;32;20224;-58
2023/04/29 05:08:58;;;;;;;0.40;0.40;;;;;;;12.59;100.00;95157.16;4370483;32;20290;-58
2023/04/29 05:11:23;;;;;;;0.30;0.30;;;;;;;12.57;100.00;95156.69;4386001;32;20214;-58
2023/04/29 05:13:50;;;;;;;0.10;0.10;;;;;;;12.71;100.00;95152.00;4347128;32;20204;-60
2023/04/29 05:16:17;;;;;;;0.23;0.23;;;;;;;12.75;100.00;95152.19;4352740;32;20217;-58
2023/04/29 05:18:44;;;;;;;0.50;0.50;;;;;;;12.80;100.00;95157.38;4361283;32;20277;-58
2023/04/29 05:21:12;;;;;;;0.10;0.10;;;;;;;12.84;100.00;95155.66;4380162;32;20256;-58
2023/04/29 05:23:42;;;;;;;0.20;0.20;;;;;;;12.85;100.00;95167.09;4350835;32;20188;-58
2023/04/29 05:26:10;;;;;;;0.40;0.33;;;;;;;12.97;100.00;95162.72;4341051;32;20218;-58
2023/04/29 05:28:37;;;;;;;0.27;0.27;;;;;;;12.97;100.00;95162.72;4352386;32;20230;-58
2023/04/29 05:31:10;;;;;;;0.10;0.10;;;;;;;13.04;100.00;95154.25;4357772;32;20193;-58
2023/04/29 05:33:37;;;;;;;0.30;0.30;;;;;;;13.00;100.00;95167.41;4366027;32;20188;-58
2023/04/29 05:36:02;;;;;;;11.83;0.60;;;;;;;13.04;100.00;95173.69;4369819;32;20222;-59
2023/04/29 05:38:31;;;;;;;0.40;0.40;;;;;;;13.04;100.00;95179.00;4360804;32;20181;-59
2023/04/29 05:40:58;;;;;;;0.43;0.40;;;;;;;13.03;100.00;95180.12;4356131;32;20242;-58
2023/04/29 05:43:26;;;;;;;0.97;0.43;;;;;;;13.13;100.00;95183.53;4368459;32;20201;-59
2023/04/29 05:45:53;;;;;;;0.77;0.77;;;;;;;13.13;100.00;95179.00;4333071;32;20276;-58
2023/04/29 05:48:23;;;;;;;0.73;0.73;;;;;;;13.05;100.00;95177.13;4312135;32;20253;-58
2023/04/29 05:50:53;;;;;;;0.13;0.13;;;;;;;13.08;100.00;95185.28;4312125;32;20300;-58
2023/04/29 05:53:20;;;;;;;0.23;0.23;;;;;;;13.10;100.00;95182.28;4349587;32;20262;-58
2023/04/29 05:55:49;;;;;;;0.50;0.50;;;;;;;13.13;100.00;95180.88;4338027;32;20332;-58
2023/04/29 05:58:18;;;;;;;0.30;0.30;;;;;;;13.16;100.00;95191.75;4314625;32;20204;-58
2023/04/29 06:00:48;;;;;;;0.67;0.67;;;;;;;13.26;100.00;95190.66;4337226;32;20193;-58
2023/04/29 06:03:17;;;;;;;0.43;0.43;;;;;;;13.29;100.00;95195.38;4366330;32;20236;-58
2023/04/29 06:05:43;;;;;;;0.40;0.40;;;;;;;13.31;100.00;95193.16;4369495;32;20205;-58
2023/04/29 06:08:10;;;;;;;0.37;0.37;;;;;;;13.25;100.00;95199.75;4346816;32;20189;-58
2023/04/29 06:10:37;;;;;;;0.37;0.37;;;;;;;13.47;100.00;95193.47;4329250;32;20205;-59
2023/04/29 06:13:03;;;;;;;0.50;0.50;;;;;;;13.54;100.00;95197.22;4363835;32;20204;-58
2023/04/29 06:15:30;;;;;;;0.37;0.37;;;;;;;13.51;100.00;95203.19;4367426;32;20192;-58
2023/04/29 06:17:56;;;;;;;0.83;0.73;;;;;;;13.52;100.00;95211.97;4347888;32;20296;-58
2023/04/29 06:20:23;;;;;;;0.37;0.37;;;;;;;13.49;100.00;95213.41;4314025;32;20233;-59
2023/04/29 06:22:49;;;;;;;0.97;0.97;;;;;;;13.60;100.00;95214.63;4328208;32;20291;-58
2023/04/29 06:25:19;;;;;;;0.63;0.63;;;;;;;13.53;100.00;95218.84;4356548;32;20231;-58
2023/04/29 06:27:49;;;;;;;0.53;0.53;;;;;;;13.62;100.00;95215.09;4375573;32;20291;-58
2023/04/29 06:30:15;;;;;;;0.53;0.53;;;;;;;13.71;100.00;95210.56;4372926;32;20263;-58
2023/04/29 06:32:40;;;;;;;0.87;0.87;;;;;;;13.74;100.00;95223.25;4331775;32;20188;-58
2023/04/29 06:35:10;;;;;;;0.60;0.60;;;;;;;13.80;100.00;95225.75;4309095;32;20219;-58
2023/04/29 06:37:37;;;;;;;0.57;0.57;;;;;;;13.80;100.00;95225.75;4360492;32;20260;-58
2023/04/29 06:40:06;;;;;;;0.60;0.60;;;;;;;13.81;100.00;95235.31;4381575;32;20207;-60
2023/04/29 06:42:35;;;;;;;0.50;0.50;;;;;;;13.78;100.00;95234.06;4365037;32;20292;-60
2023/04/29 06:45:05;;;;;;;0.60;0.60;;;;;;;13.70;100.00;95226.88;4386277;32;20241;-58
2023/04/29 06:47:31;;;;;;;0.70;0.70;;;;;;;13.72;100.00;95233.44;4360078;32;20274;-58
2023/04/29 06:49:57;;;;;;;0.70;0.70;;;;;;;13.76;100.00;95231.72;4351315;32;20193;-58
2023/04/29 06:52:44;;;;;;;0.93;0.93;;;;;;;13.86;100.00;95235.16;4388485;32;20291;-57
2023/04/29 06:55:11;;;;;;;1.17;1.17;;;;;;;13.80;100.00;95231.06;4346160;32;20207;-58
2023/04/29 06:57:39;;;;;;;0.80;0.80;;;;;;;13.84;100.00;95232.03;4359958;32;20197;-58
2023/04/29 07:00:05;;;;;;;1.03;1.03;;;;;;;14.01;100.00;95238.09;4360389;32;20603;-58
2023/04/29 07:02:34;;;;;;;1.00;1.00;;;;;;;14.11;100.00;95237.00;4354559;32;20204;-58
2023/04/29 07:05:01;;;;;;;1.10;1.10;;;;;;;14.27;100.00;95243.41;4322933;32;20256;-58
2023/04/29 07:07:27;;;;;;;0.67;0.67;;;;;;;14.21;100.00;95238.53;4377565;32;20251;-57
2023/04/29 07:09:55;;;;;;;1.13;1.10;;;;;;;14.27;100.00;95240.72;4335548;32;20307;-57
2023/04/29 07:12:21;;;;;;;0.70;0.70;;;;;;;14.24;100.00;95236.03;4343404;32;20214;-57
2023/04/29 07:14:48;;;;;;;1.03;1.03;;;;;;;14.44;99.64;95238.03;4334381;32;20200;-58
2023/04/29 07:17:13;;;;;;;2.63;1.33;;;;;;;14.48;98.89;95234.72;4337307;32;20220;-58
2023/04/29 07:19:40;;;;;;;0.53;0.53;;;;;;;14.64;98.63;95243.78;4334630;32;20247;-58
2023/04/29 07:22:07;;;;;;;0.37;0.37;;;;;;;14.65;97.64;95235.44;4362937;32;20200;-59
2023/04/29 07:24:34;;;;;;;0.63;0.63;;;;;;;14.76;97.72;95241.97;4370377;32;20237;-58
2023/04/29 07:27:01;;;;;;;0.63;0.63;;;;;;;14.86;97.54;95240.84;4329950;32;20207;-57
2023/04/29 07:29:26;;;;;;;1.20;0.80;;;;;;;14.82;96.58;95239.91;4384336;32;20214;-57
2023/04/29 07:31:58;;;;;;;1.80;1.70;;;;;;;14.90;96.22;95241.00;4296555;32;20285;-59
2023/04/29 07:34:24;;;;;;;1.07;1.07;;;;;;;14.96;96.08;95245.84;4324881;32;20211;-57
2023/04/29 07:36:50;;;;;;;0.77;0.77;;;;;;;14.93;95.91;95249.16;4358305;32;20201;-57
2023/04/29 07:39:17;;;;;;;1.23;1.23;;;;;;;15.07;95.11;95247.03;4348695;32;20240;-58
2023/04/29 07:41:44;;;;;;;0.97;0.97;;;;;;;15.07;95.06;95252.37;4317083;32;20243;-58
2023/04/29 07:44:10;;;;;;;0.93;0.93;;;;;;;15.09;94.73;95249.38;4316143;32;20197;-57
2023/04/29 07:46:39;;;;;;;0.50;0.50;;;;;;;15.06;94.79;95256.12;4324682;32;20260;-58
2023/04/29 07:49:06;;;;;;;0.90;0.90;;;;;;;15.22;94.05;95248.34;4358340;32;20252;-58
2023/04/29 07:51:33;;;;;;;0.60;0.60;;;;;;;15.13;94.39;95248.41;4322427;32;20235;-57
2023/04/29 07:53:58;;;;;;;0.80;0.80;;;;;;;15.15;94.08;95245.41;4335937;32;20240;-57
2023/04/29 07:56:24;;;;;;;0.83;0.83;;;;;;;15.35;93.82;95251.87;4369864;32;20227;-59
2023/04/29 07:58:51;;;;;;;0.43;0.43;;;;;;;15.43;93.50;95253.69;4344068;32;20258;-58
2023/04/29 08:01:17;;;;;;;0.70;0.70;;;;;;;15.67;92.01;95259.22;4330108;32;20200;-55
2023/04/29 08:03:43;;;;;;;0.93;0.93;;;;;;;15.67;91.80;95253.88;4316951;32;20201;-57
2023/04/29 08:06:09;;;;;;;0.50;0.50;;;;;;;15.64;90.64;95262.53;4311941;32;20189;-58
2023/04/29 08:08:35;;;;;;;0.43;0.43;;;;;;;15.57;91.85;95254.28;4309285;32;20280;-57
2023/04/29 08:11:02;;;;;;;0.63;0.63;;;;;;;15.51;91.77;95254.75;4306249;32;20196;-58
2023/04/29 08:13:49;;;;;;;0.60;0.60;;;;;;;15.66;90.79;95262.22;4291063;32;20256;-58
2023/04/29 08:16:18;;;;;;;0.63;0.63;;;;;;;15.71;89.27;95249.44;4343942;32;20232;-58
2023/04/29 08:18:44;;;;;;;0.90;0.90;;;;;;;15.75;89.99;95250.34;4322129;32;20181;-58
2023/04/29 08:21:14;;;;;;;0.60;0.60;;;;;;;15.74;88.17;95251.47;4306238;32;20189;-59
2023/04/29 08:27:02;;;;;;;0.67;0.67;;;;;;;15.56;88.67;95247.38;4351027;32;20286;-59
2023/04/29 08:32:50;;;;;;;1.03;1.03;;;;;;;15.22;91.85;95255.56;4303318;32;20211;-59
2023/04/29 08:35:16;;;;;;;1.07;0.97;;;;;;;15.22;91.03;95256.34;4286465;32;20185;-58
2023/04/29 08:37:44;;;;;;;1.13;0.90;;;;;;;15.31;91.27;95250.97;4363627;32;20254;-58
2023/04/29 08:40:10;;;;;;;0.87;0.87;;;;;;;15.27;89.47;95260.72;4367331;32;20204;-56
2023/04/29 08:42:38;;;;;;;1.37;1.27;;;;;;;15.09;89.81;95260.84;4346556;32;20258;-56
2023/04/29 08:45:05;;;;;;;0.77;0.77;;;;;;;15.03;90.78;95261.34;4340122;32;20203;-58
2023/04/29 08:47:33;;;;;;;0.93;0.93;;;;;;;15.00;90.51;95257.41;4390193;32;20234;-55
2023/04/29 08:50:08;;;;;;;0.87;0.87;;;;;;;15.11;90.08;95253.28;4347006;32;20295;-58
2023/04/29 08:52:33;;;;;;;1.13;1.13;;;;;;;15.31;90.24;95248.28;4372666;32;20191;-58
2023/04/29 08:55:19;;;;;;;0.40;0.40;;;;;;;15.43;89.41;95248.34;4359897;32;20184;-56
2023/04/29 08:57:49;;;;;;;0.37;0.37;;;;;;;15.55;88.77;95253.00;4361188;32;20274;-57
2023/04/29 09:00:16;;;;;;;0.80;0.80;;;;;;;15.75;87.17;95253.03;4342696;32;20201;-56
2023/04/29 09:02:50;;;;;;;0.63;0.63;;;;;;;15.82;86.73;95242.56;4338745;32;20228;-56
2023/04/29 09:05:20;;;;;;;4.30;1.50;;;;;;;15.94;84.59;95241.06;4319661;32;20204;-57
2023/04/29 09:07:50;;;;;;;1.20;1.07;;;;;;;16.01;83.93;95247.44;4317970;32;20251;-56
2023/04/29 09:10:18;;;;;;;0.60;0.60;;;;;;;16.02;83.78;95242.88;4371192;32;20193;-55
2023/04/29 09:12:44;;;;;;;0.63;0.63;;;;;;;16.03;83.16;95250.56;4378207;32;20192;-57
2023/04/29 09:15:11;;;;;;;1.00;0.93;;;;;;;16.07;82.52;95248.00;4377665;32;20188;-56
2023/04/29 09:17:39;;;;;;;0.80;0.80;;;;;;;16.08;81.28;95253.03;4362622;32;20211;-56
2023/04/29 09:20:22;;;;;;;0.43;0.43;;;;;;;16.06;81.58;95246.44;4361476;32;20180;-57
2023/04/29 09:23:05;;;;;;;0.40;0.40;;;;;;;16.04;81.59;95246.00;4304370;32;20208;-57
2023/04/29 09:25:32;;;;;;;0.30;0.30;;;;;;;15.90;83.72;95245.50;4336080;32;20200;-56
2023/04/29 09:28:17;;;;;;;0.50;0.50;;;;;;;15.95;83.84;95243.41;4361044;32;20227;-55
2023/04/29 09:30:47;;;;;;;0.57;0.57;;;;;;;15.94;82.13;95246.41;4379848;32;20192;-57
2023/04/29 09:33:15;;;;;;;0.57;0.57;;;;;;;16.00;80.77;95240.50;4366067;32;20199;-55
2023/04/29 09:35:41;;;;;;;0.60;0.60;;;;;;;15.90;81.37;95240.16;4355857;32;20239;-56
2023/04/29 09:38:13;;;;;;;0.67;0.67;;;;;;;15.98;81.30;95239.31;4370096;32;20204;-56
2023/04/29 09:40:41;;;;;;;0.33;0.33;;;;;;;16.01;80.51;95247.44;4341634;32;20237;-56
2023/04/29 09:43:17;;;;;;;2.00;0.93;;;;;;;16.07;80.81;95245.34;4341036;32;20192;-57
2023/04/29 09:45:48;;;;;;;0.30;0.30;;;;;;;16.08;80.53;95244.22;4345795;32;20248;-56
2023/04/29 09:48:15;;;;;;;0.40;0.37;;;;;;;16.07;79.86;95243.44;4352786;32;20207;-55
2023/04/29 09:50:47;;;;;;;0.40;0.33;;;;;;;16.02;78.93;95248.22;4368934;32;20185;-57
2023/04/29 09:53:28;;;;;;;0.40;0.40;;;;;;;16.00;78.55;95261.16;4349493;32;20188;-56
2023/04/29 09:56:02;;;;;;;0.70;0.70;;;;;;;15.98;79.06;95258.03;4355998;32;20247;-56
2023/04/29 09:58:32;;;;;;;0.37;0.37;;;;;;;16.03;81.03;95255.13;4364409;32;20197;-54
2023/04/29 10:01:01;;;;;;;0.40;0.40;;;;;;;16.17;79.93;95258.31;4331889;32;20181;-56
2023/04/29 10:03:37;;;;;;;0.47;0.47;;;;;;;16.32;78.60;95241.62;4376775;32;20221;-56
2023/04/29 10:06:05;;;;;;;4.70;1.33;;;;;;;16.50;77.22;95234.97;4341500;32;20256;-57
2023/04/29 10:08:37;;;;;;;0.40;0.40;;;;;;;16.66;76.08;95237.00;4361299;32;20211;-56
2023/04/29 10:11:05;;;;;;;0.83;0.83;;;;;;;16.84;75.60;95236.47;4305337;32;20197;-56
2023/04/29 10:14:29;;;;;;;0.70;0.50;;;;;;;16.94;74.30;95235.25;4273746;32;20267;-56
2023/04/29 10:17:21;;;;;;;0.60;0.60;;;;;;;17.13;73.96;95226.62;4271050;32;20359;-56
2023/04/29 10:20:08;;;;;;;5.10;1.03;;;;;;;17.24;74.21;95226.97;4280508;32;20208;-57
2023/04/29 10:22:46;;;;;;;0.27;0.27;;;;;;;17.21;73.38;95228.44;4338231;32;20212;-53
2023/04/29 10:25:14;;;;;;;0.40;0.40;;;;;;;17.15;75.38;95243.94;4353070;32;20221;-56
2023/04/29 10:27:47;;;;;;;0.70;0.70;;;;;;;17.00;77.79;95247.31;4361651;32;20208;-55
2023/04/29 10:30:17;;;;;;;0.70;0.67;;;;;;;16.77;78.49;95240.84;4374268;32;20192;-57
2023/04/29 10:32:50;;;;;;;0.50;0.50;;;;;;;16.64;79.51;95239.25;4348169;32;20189;-56
2023/04/29 10:35:28;;;;;;;0.60;0.60;;;;;;;16.55;79.66;95244.69;4366512;32;20188;-56
2023/04/29 10:37:59;;;;;;;0.77;0.77;;;;;;;16.43;80.35;95240.06;4344141;32;20253;-54
2023/04/29 10:40:52;;;;;;;0.20;0.20;;;;;;;16.32;80.88;95248.88;4364442;32;20189;-56
2023/04/29 10:43:26;;;;;;;0.57;0.57;;;;;;;16.35;80.90;95243.66;4350022;32;20205;-57
2023/04/29 10:46:18;;;;;;;1.10;1.00;;;;;;;16.37;81.08;95238.75;4372763;32;20219;-57
2023/04/29 10:48:48;;;;;;;0.50;0.50;;;;;;;16.37;81.86;95238.75;4370026;32;20199;-56
2023/04/29 10:51:45;;;;;;;2.13;1.07;;;;;;;16.44;80.69;95232.81;4348473;32;20196;-54
2023/04/29 10:54:24;;;;;;;0.43;0.43;;;;;;;16.54;78.59;95234.31;4352851;32;20268;-57
2023/04/29 10:56:52;;;;;;;0.50;0.50;;;;;;;16.66;75.39;95227.09;4366290;32;20230;-56
2023/04/29 10:59:30;;;;;;;0.60;0.60;;;;;;;16.85;74.50;95221.16;4378157;32;20188;-57
2023/04/29 11:01:57;;;;;;;0.50;0.50;;;;;;;16.91;75.37;95217.16;4328342;32;20252;-57
2023/04/29 11:04:25;;;;;;;0.40;0.40;;;;;;;16.91;73.59;95222.50;4344900;32;20295;-56
2023/04/29 11:06:53;;;;;;;0.40;0.40;;;;;;;16.79;74.79;95225.22;4364004;32;20234;-56
2023/04/29 11:09:26;;;;;;;0.47;0.47;;;;;;;16.81;74.89;95214.94;4390322;32;20184;-56
2023/04/29 11:12:04;;;;;;;2.00;0.80;;;;;;;16.79;75.18;95214.50;4383575;32;20192;-57
2023/04/29 11:14:31;;;;;;;0.77;0.77;;;;;;;16.88;74.33;95219.72;4351206;32;20245;-56
2023/04/29 11:17:03;;;;;;;3.10;0.70;;;;;;;16.98;72.86;95228.09;4348710;32;20234;-56
2023/04/29 11:19:33;;;;;;;0.33;0.33;;;;;;;16.99;72.55;95229.66;4360504;32;20212;-56
2023/04/29 11:22:08;;;;;;;0.47;0.47;;;;;;;16.88;73.51;95220.50;4358931;32;20196;-55
2023/04/29 11:24:36;;;;;;;0.40;0.40;;;;;;;16.89;71.97;95230.09;4369943;32;20191;-56
2023/04/29 11:27:05;;;;;;;0.40;0.40;;;;;;;16.88;71.82;95228.53;4358678;32;20260;-55
2023/04/29 11:29:32;;;;;;;0.67;0.40;;;;;;;16.96;70.75;95230.34;4363695;32;20419;-56
2023/04/29 11:32:00;;;;;;;0.20;0.20;;;;;;;16.96;71.68;95222.28;4344639;32;20212;-54
2023/04/29 11:34:27;;;;;;;0.90;0.90;;;;;;;16.96;69.63;95226.88;4352338;32;20180;-56
2023/04/29 11:36:53;;;;;;;1.73;1.60;;;;;;;16.91;69.74;95233.22;4355513;32;20200;-56
2023/04/29 11:39:20;;;;;;;0.43;0.43;;;;;;;16.86;69.84;95238.03;4323255;32;20193;-55
2023/04/29 11:41:45;;;;;;;0.83;0.80;;;;;;;16.86;69.60;95241.50;4346877;32;20228;-56
2023/04/29 11:44:12;;;;;;;0.30;0.30;;;;;;;16.85;70.31;95231.88;4359572;32;20256;-56
2023/04/29 11:46:39;;;;;;;0.40;0.40;;;;;;;16.96;69.67;95238.37;4367889;32;20200;-56